Time;durP1;ratioP1;P1;durP2;ratioP2;P2;SDS_P1;SDS_P2;PMS_P1;PMS_P2;Temp;Humidity;BMP_temperature;BMP_pressure;BME280_temperature;BME280_humidity;BME280_pressure;Samples;Min_cycle;Max_cycle;Signal;HPM_P1;HPM_P2
2021/05/04 00:00:41;;;;;;;4.43;3.78;;;12.90;99.90;;;;;;4886251;29;20109;-81
2021/05/04 00:03:06;;;;;;;3.38;3.08;;;12.80;99.90;;;;;;4883820;29;20032;-82
2021/05/04 00:05:32;;;;;;;4.25;3.50;;;12.80;99.90;;;;;;4885279;29;20037;-83
2021/05/04 00:07:58;;;;;;;4.10;3.70;;;12.70;99.90;;;;;;4866261;29;20657;-83
2021/05/04 00:10:24;;;;;;;3.88;3.47;;;12.70;99.90;;;;;;4884272;29;20033;-81
2021/05/04 00:12:49;;;;;;;3.55;3.33;;;12.70;99.90;;;;;;4884993;29;20057;-85
2021/05/04 00:15:15;;;;;;;9.57;4.07;;;12.70;99.90;;;;;;4882758;29;20028;-80
2021/05/04 00:17:41;;;;;;;4.75;3.85;;;12.70;99.90;;;;;;4872161;29;20069;-81
2021/05/04 00:20:08;;;;;;;5.10;3.78;;;12.70;99.90;;;;;;4895652;29;20723;-81
2021/05/04 00:22:34;;;;;;;3.85;3.50;;;12.70;99.90;;;;;;4895148;29;20077;-80
2021/05/04 00:24:59;;;;;;;3.72;3.42;;;12.70;99.90;;;;;;4895911;29;20115;-81
2021/05/04 00:27:25;;;;;;;3.97;3.28;;;12.70;99.90;;;;;;4889102;29;20121;-83
2021/05/04 00:29:51;;;;;;;4.07;3.65;;;12.70;99.90;;;;;;4877659;29;20040;-82
2021/05/04 00:32:17;;;;;;;4.72;4.32;;;12.60;99.90;;;;;;4878978;29;20029;-83
2021/05/04 00:34:42;;;;;;;4.53;3.28;;;12.70;99.90;;;;;;4879250;29;20545;-83
2021/05/04 00:37:08;;;;;;;5.90;3.72;;;12.60;99.90;;;;;;4879030;29;20030;-83
2021/05/04 00:39:36;;;;;;;4.85;3.90;;;12.60;99.90;;;;;;4894725;29;20111;-83
2021/05/04 00:42:02;;;;;;;3.90;3.60;;;12.60;99.90;;;;;;4897724;29;20033;-84
2021/05/04 00:44:28;;;;;;;4.45;4.03;;;12.60;99.90;;;;;;4900158;29;20088;-82
2021/05/04 00:46:54;;;;;;;3.53;3.22;;;12.60;99.90;;;;;;4884554;29;20115;-83
2021/05/04 00:49:20;;;;;;;5.30;3.67;;;12.50;99.90;;;;;;4899917;29;20039;-83
2021/05/04 00:51:47;;;;;;;4.07;3.70;;;12.50;99.90;;;;;;4897991;29;20024;-84
2021/05/04 00:54:14;;;;;;;4.88;3.75;;;12.50;99.90;;;;;;4897929;29;20397;-84
2021/05/04 00:56:40;;;;;;;10.40;4.10;;;12.50;99.90;;;;;;4897878;29;20024;-83
2021/05/04 00:59:08;;;;;;;4.30;3.90;;;12.50;99.90;;;;;;4877953;29;20045;-84
2021/05/04 01:01:34;;;;;;;5.15;3.58;;;12.60;99.90;;;;;;4879361;29;20021;-83
2021/05/04 01:04:00;;;;;;;4.50;3.30;;;12.70;99.90;;;;;;4878200;29;20374;-83
2021/05/04 01:06:26;;;;;;;3.72;3.42;;;12.60;99.90;;;;;;4878219;29;20057;-83
2021/05/04 01:08:52;;;;;;;5.90;4.28;;;12.60;99.90;;;;;;4880183;29;20099;-83
2021/05/04 01:11:18;;;;;;;9.35;4.32;;;12.60;99.90;;;;;;4880770;29;20477;-83
2021/05/04 01:13:48;;;;;;;3.95;3.63;;;12.50;99.90;;;;;;4880890;29;20446;-84
2021/05/04 01:16:14;;;;;;;4.43;4.03;;;12.50;99.90;;;;;;4864213;29;20085;-83
2021/05/04 01:18:39;;;;;;;3.80;3.50;;;12.30;99.90;;;;;;4863829;29;20033;-83
2021/05/04 01:21:05;;;;;;;5.43;4.20;;;12.30;99.90;;;;;;4880786;29;20044;-83
2021/05/04 01:23:31;;;;;;;5.32;4.32;;;12.20;99.90;;;;;;4880973;29;20031;-83
2021/05/04 01:25:57;;;;;;;5.28;4.13;;;12.20;99.90;;;;;;4880547;29;20033;-83
2021/05/04 01:28:22;;;;;;;4.97;4.28;;;12.20;99.90;;;;;;4880362;29;20451;-84
2021/05/04 01:30:48;;;;;;;4.72;4.10;;;12.30;99.90;;;;;;4880524;29;20037;-84
2021/05/04 01:33:14;;;;;;;5.47;4.60;;;12.30;99.90;;;;;;4879189;29;20144;-83
2021/05/04 01:35:39;;;;;;;5.43;4.15;;;12.30;99.90;;;;;;4880294;29;20056;-84
2021/05/04 01:38:05;;;;;;;5.32;4.40;;;12.30;99.90;;;;;;4880488;29;20090;-84
2021/05/04 01:40:31;;;;;;;8.18;4.75;;;12.30;99.90;;;;;;4880220;29;20040;-83
2021/05/04 01:42:57;;;;;;;7.00;4.35;;;12.20;99.90;;;;;;4880465;29;20036;-83
2021/05/04 01:45:22;;;;;;;6.03;4.55;;;12.20;99.90;;;;;;4863699;29;20037;-84
2021/05/04 01:47:48;;;;;;;6.55;5.38;;;12.20;99.90;;;;;;4879008;29;20033;-83
2021/05/04 01:50:14;;;;;;;7.00;4.80;;;12.20;99.90;;;;;;4880215;29;20029;-83
2021/05/04 01:52:40;;;;;;;7.63;5.07;;;12.10;99.90;;;;;;4878936;29;20029;-84
2021/05/04 01:55:08;;;;;;;5.72;5.13;;;12.10;99.90;;;;;;4878436;29;20036;-83
2021/05/04 01:57:34;;;;;;;5.43;4.65;;;12.10;99.90;;;;;;4879845;29;20100;-83
2021/05/04 02:00:00;;;;;;;6.13;5.03;;;12.10;99.90;;;;;;4880057;29;20483;-84
2021/05/04 02:02:25;;;;;;;5.22;4.80;;;12.10;99.90;;;;;;4879894;29;20035;-83
2021/05/04 02:04:53;;;;;;;7.85;4.50;;;12.10;99.90;;;;;;4880121;29;20577;-83
2021/05/04 02:07:19;;;;;;;8.88;5.07;;;12.10;99.90;;;;;;4880006;29;20525;-84
2021/05/04 02:09:45;;;;;;;8.30;5.78;;;12.10;99.90;;;;;;4863330;29;20052;-83
2021/05/04 02:12:11;;;;;;;5.18;4.63;;;12.00;99.90;;;;;;4879842;29;20021;-83
2021/05/04 02:14:37;;;;;;;6.13;5.00;;;12.10;99.90;;;;;;4879990;29;20367;-84
2021/05/04 02:17:02;;;;;;;5.70;5.07;;;12.00;99.90;;;;;;4879694;29;20458;-84
2021/05/04 02:19:28;;;;;;;5.22;4.70;;;12.00;99.90;;;;;;4879508;29;20067;-84
2021/05/04 02:21:54;;;;;;;7.45;6.03;;;12.00;99.90;;;;;;4879805;29;20032;-84
2021/05/04 02:24:19;;;;;;;5.88;5.25;;;12.00;99.90;;;;;;4879496;29;20109;-83
2021/05/04 02:26:45;;;;;;;7.88;5.18;;;12.10;99.90;;;;;;4879520;29;20073;-83
2021/05/04 02:29:11;;;;;;;5.28;4.53;;;12.00;99.90;;;;;;4862791;29;20021;-84
2021/05/04 02:31:36;;;;;;;7.78;5.78;;;12.00;99.90;;;;;;4879386;29;20088;-84
2021/05/04 02:34:02;;;;;;;7.30;5.68;;;12.00;99.90;;;;;;4862697;29;20394;-83
2021/05/04 02:36:28;;;;;;;8.13;5.47;;;11.90;99.90;;;;;;4879299;29;20029;-83
2021/05/04 02:38:54;;;;;;;11.00;5.72;;;11.90;99.90;;;;;;4879209;29;20021;-84
2021/05/04 02:41:19;;;;;;;8.68;5.43;;;12.00;99.90;;;;;;4862680;29;20037;-83
2021/05/04 02:43:45;;;;;;;7.78;5.50;;;12.00;99.90;;;;;;4879316;29;20029;-83
2021/05/04 02:46:11;;;;;;;7.40;6.05;;;12.00;99.90;;;;;;4879217;29;20262;-83
2021/05/04 02:48:40;;;;;;;8.52;6.25;;;12.00;99.90;;;;;;4878867;29;20153;-84
2021/05/04 02:51:11;;;;;;;7.18;6.03;;;12.00;99.90;;;;;;4862454;29;20088;-84
2021/05/04 02:53:37;;;;;;;9.52;5.82;;;12.10;99.90;;;;;;4862385;29;20532;-83
2021/05/04 02:56:05;;;;;;;6.60;5.30;;;12.00;99.90;;;;;;4878824;29;20438;-83
2021/05/04 02:58:31;;;;;;;6.07;5.32;;;12.00;99.90;;;;;;4862042;29;20394;-84
2021/05/04 03:00:57;;;;;;;9.30;6.32;;;12.00;99.90;;;;;;4878896;29;20053;-83
2021/05/04 03:03:23;;;;;;;7.10;5.90;;;11.90;99.90;;;;;;4862359;29;20397;-84
2021/05/04 03:05:49;;;;;;;6.35;5.50;;;12.00;99.90;;;;;;4878082;29;20028;-82
2021/05/04 03:08:15;;;;;;;6.13;5.53;;;12.00;99.90;;;;;;4878789;29;20033;-83
2021/05/04 03:10:41;;;;;;;7.70;5.60;;;12.00;99.90;;;;;;4878650;29;20025;-83
2021/05/04 03:13:07;;;;;;;7.93;5.80;;;11.90;99.90;;;;;;4878644;29;20025;-83
2021/05/04 03:15:32;;;;;;;10.13;5.55;;;12.00;99.90;;;;;;4879048;29;20052;-84
2021/05/04 03:18:00;;;;;;;9.20;6.57;;;11.90;99.90;;;;;;4861800;29;20060;-83
2021/05/04 03:20:26;;;;;;;6.70;5.75;;;11.90;99.90;;;;;;4861877;29;20055;-83
2021/05/04 03:22:52;;;;;;;8.40;5.70;;;11.80;99.90;;;;;;4878517;29;20485;-83
2021/05/04 03:25:18;;;;;;;11.77;6.90;;;11.90;99.90;;;;;;4878627;29;20035;-83
2021/05/04 03:27:43;;;;;;;8.50;6.35;;;11.80;99.90;;;;;;4878209;29;20033;-83
2021/05/04 03:30:10;;;;;;;10.48;5.90;;;11.80;99.90;;;;;;4861785;29;20116;-84
2021/05/04 03:32:40;;;;;;;9.70;6.47;;;11.80;99.90;;;;;;4878450;29;20374;-85
2021/05/04 03:35:07;;;;;;;7.95;6.57;;;11.80;99.90;;;;;;4878383;29;20073;-84
2021/05/04 03:37:33;;;;;;;7.68;6.00;;;11.90;99.90;;;;;;4878104;29;20293;-84
2021/05/04 03:39:59;;;;;;;9.50;6.82;;;11.90;99.90;;;;;;4878394;29;20140;-84
2021/05/04 03:42:24;;;;;;;11.70;6.20;;;11.90;99.90;;;;;;4878310;29;20495;-84
2021/05/04 03:44:50;;;;;;;8.63;6.85;;;11.90;99.90;;;;;;4861445;29;20041;-83
2021/05/04 03:47:16;;;;;;;12.38;6.53;;;12.00;99.90;;;;;;4878136;29;20032;-83
2021/05/04 03:49:41;;;;;;;8.65;6.32;;;12.00;99.90;;;;;;4877947;29;20398;-83
2021/05/04 03:52:07;;;;;;;12.25;7.10;;;11.90;99.90;;;;;;4878058;29;20111;-83
2021/05/04 03:54:33;;;;;;;9.98;6.78;;;11.90;99.90;;;;;;4878170;29;20108;-83
2021/05/04 03:56:58;;;;;;;10.80;6.80;;;11.90;99.90;;;;;;4861218;29;20036;-84
2021/05/04 03:59:24;;;;;;;9.55;6.72;;;11.90;99.90;;;;;;4877918;29;20053;-83
2021/05/04 04:01:50;;;;;;;8.93;6.65;;;11.90;99.90;;;;;;4876831;29;20033;-83
2021/05/04 04:04:15;;;;;;;13.05;6.68;;;11.90;99.90;;;;;;4878009;29;20028;-83
2021/05/04 04:06:41;;;;;;;8.80;6.70;;;11.90;99.90;;;;;;4861195;29;20494;-84
2021/05/04 04:09:07;;;;;;;9.52;6.63;;;11.90;99.90;;;;;;4877888;29;20040;-84
2021/05/04 04:11:32;;;;;;;10.63;6.90;;;11.90;99.90;;;;;;4877738;29;20565;-84
2021/05/04 04:13:59;;;;;;;11.88;6.90;;;11.80;99.90;;;;;;4877979;29;20031;-83
2021/05/04 04:16:25;;;;;;;9.07;6.25;;;11.80;99.90;;;;;;4861271;29;20398;-84
2021/05/04 04:18:50;;;;;;;10.52;6.53;;;11.90;99.90;;;;;;4877620;29;20036;-84
2021/05/04 04:21:16;;;;;;;8.95;5.97;;;11.90;99.90;;;;;;4877849;29;20037;-84
2021/05/04 04:23:42;;;;;;;10.35;6.57;;;11.90;99.90;;;;;;4876796;29;20033;-83
2021/05/04 04:26:07;;;;;;;9.43;6.88;;;11.90;99.90;;;;;;4876076;29;20044;-84
2021/05/04 04:28:33;;;;;;;9.57;6.57;;;11.90;99.90;;;;;;4879913;29;20093;-84
2021/05/04 04:30:59;;;;;;;12.88;6.30;;;11.90;99.90;;;;;;4867759;29;20438;-84
2021/05/04 04:33:28;;;;;;;10.10;7.40;;;11.90;99.90;;;;;;4886200;29;20021;-84
2021/05/04 04:35:54;;;;;;;11.57;7.65;;;11.90;99.90;;;;;;4886847;29;20279;-84
2021/05/04 04:38:24;;;;;;;10.82;6.28;;;11.80;99.90;;;;;;4884671;29;20029;-84
2021/05/04 04:40:50;;;;;;;10.13;6.88;;;11.80;99.90;;;;;;4887401;29;20021;-84
2021/05/04 04:43:16;;;;;;;10.27;7.68;;;11.80;99.90;;;;;;4885218;29;20147;-84
2021/05/04 04:45:42;;;;;;;10.27;6.75;;;11.80;99.90;;;;;;4887727;29;20036;-84
2021/05/04 04:48:08;;;;;;;8.35;6.82;;;11.90;99.90;;;;;;4879659;29;20060;-83
2021/05/04 04:50:33;;;;;;;15.57;7.57;;;11.80;99.90;;;;;;4877381;29;20176;-84
2021/05/04 04:52:59;;;;;;;12.98;7.03;;;11.80;99.90;;;;;;4877806;29;20025;-84
2021/05/04 04:55:25;;;;;;;12.75;7.20;;;11.90;99.90;;;;;;4877527;29;20040;-84
2021/05/04 04:57:51;;;;;;;13.70;7.03;;;11.90;99.90;;;;;;4877336;29;20093;-84
2021/05/04 05:00:17;;;;;;;7.78;6.40;;;11.90;99.90;;;;;;4864363;29;20140;-84
2021/05/04 05:02:43;;;;;;;9.70;6.82;;;11.90;99.90;;;;;;4883971;29;20059;-84
2021/05/04 05:05:09;;;;;;;8.48;6.63;;;12.00;99.90;;;;;;4880322;29;20474;-84
2021/05/04 05:07:35;;;;;;;8.48;6.82;;;12.00;99.90;;;;;;4878754;29;20040;-84
2021/05/04 05:10:00;;;;;;;8.13;6.82;;;12.10;99.90;;;;;;4876246;29;20490;-84
2021/05/04 05:12:26;;;;;;;11.93;7.22;;;12.20;99.90;;;;;;4860911;29;20029;-84
2021/05/04 05:14:53;;;;;;;8.75;6.93;;;12.20;99.90;;;;;;4877386;29;20081;-84
2021/05/04 05:17:20;;;;;;;9.90;6.78;;;12.20;99.90;;;;;;4860605;29;20053;-84
2021/05/04 05:19:46;;;;;;;8.88;7.38;;;12.20;99.90;;;;;;4877402;29;20032;-84
2021/05/04 05:22:12;;;;;;;11.55;7.00;;;12.20;99.90;;;;;;4876296;29;20030;-84
2021/05/04 05:24:39;;;;;;;11.60;7.32;;;12.20;99.90;;;;;;4875968;29;20040;-84
2021/05/04 05:27:05;;;;;;;9.73;7.00;;;12.20;99.90;;;;;;4875691;29;20393;-83
2021/05/04 05:29:34;;;;;;;10.15;7.15;;;12.20;99.90;;;;;;4876799;29;20029;-83
2021/05/04 05:32:01;;;;;;;9.80;6.53;;;12.10;99.90;;;;;;4879072;29;20093;-83
2021/05/04 05:34:27;;;;;;;13.15;7.35;;;12.20;99.90;;;;;;4879138;29;20025;-82
2021/05/04 05:36:53;;;;;;;11.65;6.85;;;12.10;99.90;;;;;;4879581;29;20025;-83
2021/05/04 05:39:19;;;;;;;12.32;7.15;;;12.20;99.90;;;;;;4880224;29;20088;-83
2021/05/04 05:41:45;;;;;;;10.88;7.63;;;12.20;99.90;;;;;;4880470;29;20081;-84
2021/05/04 05:44:13;;;;;;;8.13;6.35;;;12.30;99.90;;;;;;4863656;29;20025;-84
2021/05/04 05:46:39;;;;;;;11.10;7.10;;;12.30;99.90;;;;;;4880051;29;20092;-83
2021/05/04 05:49:04;;;;;;;11.68;7.15;;;12.40;99.90;;;;;;4880210;29;20029;-83
2021/05/04 05:51:30;;;;;;;9.15;6.82;;;12.40;99.90;;;;;;4863482;29;20044;-83
2021/05/04 05:53:56;;;;;;;10.63;6.82;;;12.50;99.90;;;;;;4880265;29;20044;-83
2021/05/04 05:56:22;;;;;;;13.40;7.47;;;12.50;99.90;;;;;;4863413;29;20397;-83
2021/05/04 05:58:48;;;;;;;11.18;7.18;;;12.50;99.90;;;;;;4879756;29;20036;-83
2021/05/04 06:01:14;;;;;;;11.23;7.03;;;12.50;99.90;;;;;;4879794;29;20044;-83
2021/05/04 06:03:40;;;;;;;9.68;6.60;;;12.60;99.90;;;;;;4879993;29;20031;-83
2021/05/04 06:06:06;;;;;;;12.57;7.28;;;12.60;99.90;;;;;;4880043;29;20100;-83
2021/05/04 06:08:31;;;;;;;11.65;7.43;;;12.70;99.90;;;;;;4862879;29;20516;-83
2021/05/04 06:10:57;;;;;;;12.98;8.27;;;12.70;99.90;;;;;;4879783;29;20035;-83
2021/05/04 06:13:23;;;;;;;12.05;7.25;;;12.80;99.90;;;;;;4879695;29;20076;-83
2021/05/04 06:15:49;;;;;;;9.57;7.20;;;12.90;99.90;;;;;;4879760;29;20036;-83
2021/05/04 06:18:15;;;;;;;14.77;7.43;;;13.00;99.90;;;;;;4879962;29;20025;-83
2021/05/04 06:20:41;;;;;;;9.45;6.80;;;13.10;99.90;;;;;;4879783;29;20025;-83
2021/05/04 06:23:07;;;;;;;11.82;6.90;;;13.10;99.90;;;;;;4861656;29;20572;-83
2021/05/04 06:25:34;;;;;;;9.13;6.88;;;13.20;99.90;;;;;;4862458;29;20040;-83
2021/05/04 06:28:05;;;;;;;10.23;6.65;;;13.30;99.90;;;;;;4879352;29;20036;-84
2021/05/04 06:30:37;;;;;;;8.18;5.63;;;13.40;99.90;;;;;;4862782;29;20089;-84
2021/05/04 06:33:03;;;;;;;;;;;13.40;99.90;;;;;;4863325;29;20029;-83
2021/05/04 06:35:29;;;;;;;8.85;6.32;;;13.50;99.90;;;;;;4895490;29;19907;-83
2021/05/04 06:37:55;;;;;;;9.82;6.28;;;13.60;99.90;;;;;;4898004;29;20028;-83
2021/05/04 06:40:21;;;;;;;10.15;6.55;;;13.70;99.90;;;;;;4880640;29;20032;-83
2021/05/04 06:42:47;;;;;;;9.48;7.18;;;13.70;99.90;;;;;;4897564;29;20511;-83
2021/05/04 06:45:13;;;;;;;8.90;6.00;;;13.80;99.90;;;;;;4897908;29;20052;-83
2021/05/04 06:47:38;;;;;;;7.72;6.25;;;13.90;99.90;;;;;;4898046;29;20033;-83
2021/05/04 06:50:05;;;;;;;11.77;5.70;;;14.00;99.90;;;;;;4896615;29;20021;-83
2021/05/04 06:52:31;;;;;;;9.95;6.60;;;14.10;99.90;;;;;;4897953;29;20035;-83
2021/05/04 06:54:56;;;;;;;8.38;6.07;;;14.10;99.90;;;;;;4897711;29;20024;-83
2021/05/04 06:57:24;;;;;;;9.75;5.75;;;14.20;99.90;;;;;;4880879;29;20088;-83
2021/05/04 06:59:51;;;;;;;8.68;5.93;;;14.20;99.90;;;;;;4881399;29;20139;-83
2021/05/04 07:02:17;;;;;;;7.82;5.32;;;14.30;99.90;;;;;;4881460;29;20033;-82
2021/05/04 07:04:42;;;;;;;9.82;5.93;;;14.30;99.90;;;;;;4898965;29;20153;-83
2021/05/04 07:07:08;;;;;;;10.30;5.88;;;14.40;99.90;;;;;;4881758;29;20067;-83
2021/05/04 07:09:34;;;;;;;6.03;4.82;;;14.40;99.90;;;;;;4898845;29;20537;-83
2021/05/04 07:12:00;;;;;;;7.47;5.43;;;14.40;99.90;;;;;;4898621;29;20438;-83
2021/05/04 07:14:25;;;;;;;11.48;5.78;;;14.40;99.90;;;;;;4897572;29;20111;-83
2021/05/04 07:16:52;;;;;;;10.43;5.15;;;14.50;99.90;;;;;;4897443;29;20115;-83
2021/05/04 07:19:17;;;;;;;6.88;4.28;;;14.50;99.90;;;;;;4897341;29;20048;-83
2021/05/04 07:21:43;;;;;;;10.27;5.25;;;14.60;99.90;;;;;;4897225;29;20489;-83
2021/05/04 07:24:10;;;;;;;10.38;4.60;;;14.70;99.90;;;;;;4880551;29;20035;-83
2021/05/04 07:26:38;;;;;;;7.68;3.25;;;14.70;99.90;;;;;;4897031;29;20077;-82
2021/05/04 07:29:03;;;;;;;4.32;3.03;;;14.70;99.90;;;;;;4859870;29;20062;-83
2021/05/04 07:31:30;;;;;;;6.10;3.70;;;14.70;99.60;;;;;;4859821;29;20029;-83
2021/05/04 07:33:56;;;;;;;6.40;3.50;;;14.80;99.90;;;;;;4878519;29;20033;-83
2021/05/04 07:36:23;;;;;;;5.93;2.15;;;14.90;99.90;;;;;;4869598;29;20481;-83
2021/05/04 07:38:48;;;;;;;5.20;2.33;;;14.90;98.00;;;;;;4882353;29;20037;-82
2021/05/04 07:41:14;;;;;;;2.90;2.70;;;15.10;97.90;;;;;;4877527;29;20036;-82
2021/05/04 07:43:40;;;;;;;2.97;2.75;;;15.10;98.90;;;;;;4877830;29;20363;-83
2021/05/04 07:46:05;;;;;;;4.75;2.25;;;15.20;98.80;;;;;;4877609;29;20036;-83
2021/05/04 07:48:31;;;;;;;4.03;1.60;;;15.20;95.40;;;;;;4877781;29;20027;-83
2021/05/04 07:50:57;;;;;;;2.20;1.75;;;15.30;93.10;;;;;;4877167;29;20375;-83
2021/05/04 07:53:23;;;;;;;1.48;0.98;;;15.30;93.00;;;;;;4877262;29;20028;-83
2021/05/04 07:55:49;;;;;;;1.00;0.85;;;15.40;90.50;;;;;;4878039;29;20399;-82
2021/05/04 07:58:15;;;;;;;1.63;1.40;;;15.40;89.80;;;;;;4890301;29;20016;-82
2021/05/04 08:00:41;;;;;;;5.40;1.95;;;15.40;88.10;;;;;;4879820;29;20055;-83
2021/05/04 08:03:07;;;;;;;1.95;1.45;;;15.40;90.50;;;;;;4871271;29;20029;-83
2021/05/04 08:05:33;;;;;;;2.75;1.83;;;15.40;91.40;;;;;;4878501;29;20040;-83
2021/05/04 08:07:58;;;;;;;4.72;2.13;;;15.40;91.20;;;;;;4877140;29;20085;-83
2021/05/04 08:10:24;;;;;;;3.42;2.22;;;15.50;92.20;;;;;;4879975;29;20037;-82
2021/05/04 08:12:50;;;;;;;1.98;1.80;;;15.50;91.50;;;;;;4878826;29;20025;-82
2021/05/04 08:15:19;;;;;;;6.60;1.75;;;15.50;89.70;;;;;;4878870;29;20559;-78
2021/05/04 08:17:56;;;;;;;3.97;1.67;;;15.50;93.00;;;;;;4887469;29;20032;-80
2021/05/04 08:20:25;;;;;;;2.65;1.95;;;15.50;95.00;;;;;;4897426;29;20027;-84
2021/05/04 08:22:55;;;;;;;1.70;1.38;;;15.50;92.10;;;;;;4896797;29;20028;-84
2021/05/04 08:25:20;;;;;;;1.67;1.58;;;15.60;90.20;;;;;;4897617;29;20082;-84
2021/05/04 08:27:46;;;;;;;3.65;1.45;;;15.60;90.00;;;;;;4887964;29;20041;-85
2021/05/04 08:30:13;;;;;;;2.78;1.17;;;15.60;90.50;;;;;;4876959;29;20453;-85
2021/05/04 08:32:38;;;;;;;3.28;2.10;;;15.60;88.80;;;;;;4876976;29;20025;-83
2021/05/04 08:35:05;;;;;;;1.92;1.73;;;15.70;90.20;;;;;;4877323;29;20072;-84
2021/05/04 08:37:30;;;;;;;2.15;1.95;;;15.60;90.90;;;;;;4876814;29;20028;-85
2021/05/04 08:39:56;;;;;;;2.88;1.65;;;15.70;90.80;;;;;;4859912;29;20623;-84
2021/05/04 08:42:22;;;;;;;2.78;1.50;;;15.80;92.40;;;;;;4859322;29;20040;-84
2021/05/04 08:44:52;;;;;;;2.15;1.60;;;15.90;90.60;;;;;;4859077;29;20040;-83
2021/05/04 08:47:21;;;;;;;3.35;1.90;;;15.80;90.60;;;;;;4859070;29;20033;-85
2021/05/04 08:49:48;;;;;;;2.58;1.95;;;16.00;90.30;;;;;;4858961;29;20410;-84
2021/05/04 08:52:16;;;;;;;2.45;2.25;;;16.00;90.20;;;;;;4859387;29;20025;-84
2021/05/04 08:54:42;;;;;;;2.97;2.05;;;16.00;91.00;;;;;;4859144;29;20086;-84
2021/05/04 08:57:08;;;;;;;5.03;2.33;;;16.10;93.10;;;;;;4862717;29;20041;-84
2021/05/04 08:59:33;;;;;;;2.78;1.90;;;16.10;93.30;;;;;;4877681;29;20045;-84
2021/05/04 09:01:59;;;;;;;2.38;1.90;;;16.10;91.50;;;;;;4877666;29;20112;-84
2021/05/04 09:04:28;;;;;;;2.45;2.00;;;16.20;89.70;;;;;;4861675;29;20064;-84
2021/05/04 09:06:56;;;;;;;2.63;1.98;;;16.30;89.90;;;;;;4864339;29;20447;-84
2021/05/04 09:09:29;;;;;;;3.55;2.20;;;16.40;91.50;;;;;;4881152;29;20362;-84
2021/05/04 09:12:02;;;;;;;2.55;2.28;;;16.50;90.30;;;;;;4881106;29;20017;-83
2021/05/04 09:22:04;;;;;;;4.78;2.03;;;16.50;90.40;;;;;;4880823;29;20033;-84
2021/05/04 09:24:39;;;;;;;4.03;2.15;;;16.60;90.60;;;;;;4880847;29;20021;-84
2021/05/04 09:27:15;;;;;;;2.88;2.55;;;16.70;89.60;;;;;;4863804;29;20041;-83
2021/05/04 09:29:43;;;;;;;9.63;2.70;;;16.70;91.50;;;;;;4880554;29;20025;-84
2021/05/04 09:32:15;;;;;;;4.47;2.83;;;16.90;90.90;;;;;;4880712;29;20033;-84
2021/05/04 09:34:53;;;;;;;3.38;3.08;;;16.90;90.40;;;;;;4880492;29;20100;-84
2021/05/04 09:37:22;;;;;;;3.80;3.05;;;16.80;89.00;;;;;;4880103;23;20491;-75
2021/05/04 09:39:48;;;;;;;4.25;3.53;;;16.90;91.60;;;;;;4861928;29;20044;-75
2021/05/04 09:42:14;;;;;;;10.02;4.80;;;17.10;92.90;;;;;;4860444;29;20389;-74
2021/05/04 09:44:46;;;;;;;6.00;4.22;;;17.10;90.00;;;;;;4861801;29;20393;-74
2021/05/04 09:47:18;;;;;;;6.95;4.10;;;17.00;89.70;;;;;;4844946;29;20030;-74
2021/05/04 09:49:43;;;;;;;;;;;17.10;92.40;;;;;;4861982;29;20120;-74
2021/05/04 09:52:43;;;;;;;7.75;4.30;;;17.20;92.40;;;;;;4861773;29;20355;-74
2021/05/04 09:55:17;;;;;;;8.60;5.25;;;17.20;90.70;;;;;;4844993;29;20030;-74
2021/05/04 09:57:43;;;;;;;9.52;4.88;;;17.20;91.10;;;;;;4853042;29;20033;-74
2021/05/04 10:00:23;;;;;;;5.60;5.00;;;17.10;90.90;;;;;;4880114;29;20109;-74
2021/05/04 10:02:49;;;;;;;9.10;4.95;;;17.20;90.10;;;;;;4879849;29;20033;-74
2021/05/04 10:05:19;;;;;;;5.10;4.63;;;17.40;90.10;;;;;;4880048;29;20389;-74
2021/05/04 10:07:47;;;;;;;6.82;4.30;;;17.40;91.40;;;;;;4879948;29;20029;-74
2021/05/04 10:10:15;;;;;;;4.97;4.47;;;17.60;92.60;;;;;;4879713;29;20032;-74
2021/05/04 10:12:43;;;;;;;8.77;4.65;;;17.60;92.20;;;;;;4879774;29;20438;-74
2021/05/04 10:15:11;;;;;;;5.57;4.35;;;17.60;90.20;;;;;;4879474;29;20037;-74
2021/05/04 10:17:39;;;;;;;4.60;3.78;;;17.70;91.90;;;;;;4862877;29;20025;-74
2021/05/04 10:20:09;;;;;;;8.70;4.32;;;17.90;91.30;;;;;;4879841;29;20029;-74
2021/05/04 10:22:36;;;;;;;7.28;4.03;;;17.90;90.50;;;;;;4879978;29;20079;-74
2021/05/04 10:25:03;;;;;;;6.25;3.75;;;17.90;90.30;;;;;;4879587;29;20029;-74
2021/05/04 10:27:29;;;;;;;4.32;3.25;;;18.00;90.80;;;;;;4862611;29;20571;-74
2021/05/04 10:29:56;;;;;;;3.90;3.35;;;18.00;89.40;;;;;;4879449;29;20033;-74
2021/05/04 10:33:02;;;;;;;10.55;3.50;;;18.10;87.30;;;;;;4879441;29;20028;-74
2021/05/04 10:35:31;;;;;;;5.40;3.42;;;18.10;83.50;;;;;;4822021;29;20037;-74
2021/05/04 10:38:01;;;;;;;4.28;3.38;;;18.10;86.30;;;;;;4870853;29;20110;-74
2021/05/04 10:40:31;;;;;;;7.53;4.22;;;18.30;89.50;;;;;;4879131;29;20399;-74
2021/05/04 10:42:58;;;;;;;5.53;3.70;;;18.50;88.60;;;;;;4879318;29;20056;-74
2021/05/04 10:45:41;;;;;;;4.22;3.45;;;18.60;90.60;;;;;;4879289;29;20202;-74
2021/05/04 10:48:08;;;;;;;5.68;3.88;;;18.70;89.80;;;;;;4868908;29;20033;-74
2021/05/04 10:50:55;;;;;;;4.70;4.03;;;18.70;88.80;;;;;;4859268;29;20029;-74
2021/05/04 10:53:25;;;;;;;3.50;3.20;;;18.80;88.90;;;;;;4859431;29;20030;-74
2021/05/04 10:55:54;;;;;;;6.63;3.90;;;18.90;86.10;;;;;;4843960;29;20117;-74
2021/05/04 10:58:20;;;;;;;6.53;4.05;;;18.90;83.00;;;;;;4860491;29;20029;-74
2021/05/04 11:00:52;;;;;;;8.65;4.25;;;18.80;82.70;;;;;;4860209;29;20076;-74
2021/05/04 11:03:33;;;;;;;4.25;3.85;;;19.00;84.30;;;;;;4859023;29;20148;-74
2021/05/04 11:06:03;;;;;;;5.25;4.40;;;19.10;84.80;;;;;;4859111;29;20061;-74
2021/05/04 11:08:44;;;;;;;7.78;4.47;;;19.10;82.20;;;;;;4860284;29;20094;-74
2021/05/04 11:11:22;;;;;;;6.82;4.50;;;19.30;90.60;;;;;;4859018;29;20061;-74
2021/05/04 11:13:53;;;;;;;4.97;4.32;;;19.20;88.40;;;;;;4858719;29;20030;-74
2021/05/04 11:16:28;;;;;;;4.57;3.78;;;19.10;87.40;;;;;;4858778;29;20041;-74
2021/05/04 11:19:08;;;;;;;7.88;3.90;;;19.30;90.60;;;;;;4858615;29;20029;-74
2021/05/04 11:21:42;;;;;;;6.45;4.13;;;19.50;88.20;;;;;;4860008;29;20036;-74
2021/05/04 11:24:18;;;;;;;5.82;3.55;;;19.70;87.40;;;;;;4843238;29;20025;-74
2021/05/04 11:26:49;;;;;;;6.63;3.17;;;19.80;86.00;;;;;;4860016;29;20041;-75
2021/05/04 11:29:19;;;;;;;4.80;3.70;;;20.00;85.30;;;;;;4878500;29;20029;-75
2021/05/04 11:31:47;;;;;;;4.13;3.60;;;20.10;80.00;;;;;;4878235;29;20477;-75
2021/05/04 11:34:45;;;;;;;4.57;4.18;;;20.00;78.00;;;;;;4861591;29;20081;-72
2021/05/04 11:37:36;;;;;;;4.63;3.15;;;20.10;77.80;;;;;;4878146;29;20438;-74
2021/05/04 11:40:14;;;;;;;4.07;3.72;;;20.00;81.00;;;;;;4861555;29;20114;-74
2021/05/04 11:42:57;;;;;;;7.40;3.88;;;20.10;81.20;;;;;;4861711;29;20051;-74
2021/05/04 11:45:29;;;;;;;10.68;3.90;;;20.30;83.70;;;;;;4878149;29;20033;-74
2021/05/04 11:48:16;;;;;;;5.45;4.78;;;20.20;75.90;;;;;;4878287;29;20033;-74
2021/05/04 11:50:45;;;;;;;7.03;4.43;;;20.20;73.60;;;;;;4878151;29;20068;-74
2021/05/04 11:53:14;;;;;;;5.07;3.80;;;20.40;76.50;;;;;;4861300;29;20025;-74
2021/05/04 11:55:45;;;;;;;4.75;3.90;;;20.50;74.50;;;;;;4878064;29;20389;-74
2021/05/04 11:58:21;;;;;;;5.00;3.70;;;20.60;71.80;;;;;;4877751;29;20077;-74
2021/05/04 12:00:54;;;;;;;5.97;4.20;;;20.80;74.80;;;;;;4878116;29;20112;-74
2021/05/04 12:03:20;;;;;;;9.05;4.32;;;20.80;71.30;;;;;;4861250;29;20481;-74
2021/05/04 12:05:46;;;;;;;6.43;3.95;;;20.70;70.30;;;;;;4877759;29;20021;-74
2021/05/04 12:08:13;;;;;;;6.88;4.28;;;20.80;73.60;;;;;;4861040;29;20033;-75
2021/05/04 12:10:40;;;;;;;5.50;4.70;;;20.80;73.60;;;;;;4877784;29;20029;-74
2021/05/04 12:13:07;;;;;;;5.93;4.13;;;21.10;75.80;;;;;;4877974;29;20080;-74
2021/05/04 12:15:38;;;;;;;6.03;4.18;;;21.30;75.80;;;;;;4877641;29;20063;-74
2021/05/04 12:18:09;;;;;;;5.88;3.90;;;21.60;77.10;;;;;;4877672;29;20179;-74
2021/05/04 12:20:52;;;;;;;4.78;4.15;;;21.80;76.80;;;;;;4861056;29;20512;-74
2021/05/04 12:23:27;;;;;;;5.63;3.80;;;21.80;71.60;;;;;;4877710;29;20033;-74
2021/05/04 12:26:00;;;;;;;4.15;3.85;;;21.60;68.50;;;;;;4877528;29;20104;-74
2021/05/04 12:28:32;;;;;;;7.85;3.85;;;21.30;70.60;;;;;;4860700;29;20056;-74
2021/05/04 12:31:04;;;;;;;4.40;4.00;;;21.10;69.50;;;;;;4877514;29;20048;-74
2021/05/04 12:33:30;;;;;;;5.45;4.47;;;21.40;72.60;;;;;;4877726;29;20025;-74
2021/05/04 12:38:32;;;;;;;4.95;3.67;;;21.60;66.00;;;;;;4878357;29;20057;-74
2021/05/04 12:41:06;;;;;;;5.47;3.42;;;21.70;70.30;;;;;;4864699;29;20033;-74
2021/05/04 12:43:33;;;;;;;6.97;4.03;;;22.00;70.80;;;;;;4881321;29;20032;-74
2021/05/04 12:46:02;;;;;;;4.43;3.65;;;22.10;70.00;;;;;;4881296;29;20081;-74
2021/05/04 12:48:28;;;;;;;4.13;3.72;;;22.20;68.60;;;;;;4881123;29;20033;-74
2021/05/04 12:51:24;;;;;;;5.40;3.45;;;22.40;69.30;;;;;;4866393;29;20064;-72
2021/05/04 12:53:50;;;;;;;3.80;3.50;;;22.60;67.80;;;;;;4858741;29;20042;-74
2021/05/04 12:56:19;;;;;;;3.15;2.90;;;22.70;65.60;;;;;;4862308;29;20418;-74
2021/05/04 12:58:55;;;;;;;5.90;3.72;;;22.70;64.40;;;;;;4877495;29;20141;-74